Time;durP1;ratioP1;P1;durP2;ratioP2;P2;SDS_P1;SDS_P2;PMS_P1;PMS_P2;Temp;Humidity;BMP_temperature;BMP_pressure;BME280_temperature;BME280_humidity;BME280_pressure;Samples;Min_cycle;Max_cycle;Signal;HPM_P1;HPM_P2
2024/04/03 00:01:14;;;;;;;1.60;1.50;;;10.70;99.90;;;;;;5052825;28;20455;-80
2024/04/03 00:03:43;;;;;;;1.47;1.30;;;10.70;99.90;;;;;;5051353;28;20572;-80
2024/04/03 00:06:10;;;;;;;1.47;1.20;;;10.60;99.90;;;;;;5054994;28;20555;-83
2024/04/03 00:08:37;;;;;;;1.30;1.20;;;10.50;99.90;;;;;;5054836;28;21549;-79
2024/04/03 00:11:05;;;;;;;1.57;1.30;;;10.50;99.90;;;;;;5052033;28;20608;-80
2024/04/03 00:13:32;;;;;;;4.07;1.47;;;10.60;99.90;;;;;;5052570;28;20544;-79
2024/04/03 00:15:59;;;;;;;2.30;1.43;;;10.60;99.90;;;;;;5046038;28;20488;-80
2024/04/03 00:18:26;;;;;;;1.30;1.20;;;10.60;99.90;;;;;;5059135;28;20557;-80
2024/04/03 00:21:02;;;;;;;1.50;1.40;;;10.60;99.90;;;;;;5052220;28;20551;-81
2024/04/03 00:23:29;;;;;;;1.33;1.20;;;10.60;99.90;;;;;;5052598;28;20476;-80
2024/04/03 00:26:00;;;;;;;1.60;1.50;;;10.60;99.90;;;;;;5045179;28;21269;-80
2024/04/03 00:28:30;;;;;;;1.40;1.30;;;10.50;99.90;;;;;;5052303;28;20503;-80
2024/04/03 00:31:00;;;;;;;1.57;1.47;;;10.50;99.90;;;;;;5054409;28;20973;-81
2024/04/03 00:33:28;;;;;;;1.50;1.40;;;10.50;99.90;;;;;;5049546;28;20557;-81
2024/04/03 00:35:58;;;;;;;1.67;1.40;;;10.50;99.90;;;;;;5053119;28;20476;-81
2024/04/03 00:38:25;;;;;;;1.90;1.50;;;10.60;99.90;;;;;;5048538;28;21152;-79
2024/04/03 00:40:56;;;;;;;1.90;1.33;;;10.60;99.90;;;;;;5052752;28;20535;-81
2024/04/03 00:43:23;;;;;;;3.25;1.20;;;10.50;99.90;;;;;;5052171;28;20862;-80
2024/04/03 00:45:51;;;;;;;2.57;1.40;;;10.50;99.90;;;;;;5053839;28;20290;-81
2024/04/03 00:48:19;;;;;;;1.43;1.33;;;10.60;99.90;;;;;;5047941;28;20560;-79
2024/04/03 00:50:47;;;;;;;1.60;1.30;;;10.70;99.90;;;;;;5052476;28;20497;-79
2024/04/03 00:53:16;;;;;;;1.60;1.33;;;10.70;99.90;;;;;;5052961;28;20486;-79
2024/04/03 00:55:42;;;;;;;2.20;1.30;;;10.70;99.90;;;;;;5051158;28;20462;-82
2024/04/03 00:58:10;;;;;;;1.13;1.03;;;10.70;99.90;;;;;;5051005;28;20507;-79
2024/04/03 01:00:36;;;;;;;1.90;1.27;;;10.70;99.90;;;;;;5052767;28;20452;-79
2024/04/03 01:03:05;;;;;;;1.97;1.43;;;10.60;99.90;;;;;;5051249;28;20537;-78
2024/04/03 01:05:33;;;;;;;1.70;1.30;;;10.60;99.90;;;;;;5050756;28;20485;-81
2024/04/03 01:08:00;;;;;;;2.10;1.23;;;10.60;99.90;;;;;;5036290;28;21047;-80
2024/04/03 01:10:27;;;;;;;1.90;1.73;;;10.60;99.90;;;;;;5051509;28;20541;-79
2024/04/03 01:12:55;;;;;;;1.33;1.23;;;10.60;99.90;;;;;;5052312;28;20495;-80
2024/04/03 01:15:22;;;;;;;1.40;1.30;;;10.50;99.90;;;;;;5051773;28;20456;-79
2024/04/03 01:17:49;;;;;;;1.20;1.20;;;10.50;99.90;;;;;;5050682;28;20546;-81
2024/04/03 01:20:16;;;;;;;1.73;1.40;;;10.50;99.90;;;;;;5050540;28;20536;-78
2024/04/03 01:22:47;;;;;;;2.33;1.33;;;10.50;99.90;;;;;;5050322;28;20472;-78
2024/04/03 01:25:14;;;;;;;1.40;1.30;;;10.50;99.90;;;;;;5059215;28;20460;-77
2024/04/03 01:27:42;;;;;;;2.00;1.37;;;10.60;99.90;;;;;;5050037;28;21189;-78
2024/04/03 01:30:08;;;;;;;1.20;1.10;;;10.50;99.90;;;;;;5051580;28;21388;-77
2024/04/03 01:32:37;;;;;;;2.20;1.30;;;10.50;99.90;;;;;;5052698;28;20439;-78
2024/04/03 01:35:03;;;;;;;2.83;1.80;;;10.50;99.90;;;;;;5051702;28;20538;-78
2024/04/03 01:37:30;;;;;;;1.53;1.43;;;10.50;99.90;;;;;;5052517;28;20564;-80
2024/04/03 01:39:57;;;;;;;2.63;1.83;;;10.50;99.90;;;;;;5050512;28;20579;-80
2024/04/03 01:42:27;;;;;;;2.30;1.50;;;10.40;99.90;;;;;;5052368;28;20586;-78
2024/04/03 01:44:53;;;;;;;1.43;1.20;;;10.40;99.90;;;;;;5053809;28;20495;-79
2024/04/03 01:47:20;;;;;;;1.60;1.50;;;10.40;99.90;;;;;;5057874;28;20545;-79
2024/04/03 01:49:46;;;;;;;1.30;1.30;;;10.40;99.90;;;;;;5054638;28;20555;-78
2024/04/03 01:52:13;;;;;;;4.10;1.40;;;10.50;99.90;;;;;;5053361;28;20549;-78
2024/04/03 01:54:39;;;;;;;1.93;1.30;;;10.50;99.90;;;;;;5054472;28;20562;-79
2024/04/03 01:57:06;;;;;;;2.70;1.30;;;10.40;99.60;;;;;;5051659;28;20559;-79
2024/04/03 01:59:34;;;;;;;2.03;1.93;;;10.30;99.90;;;;;;5053643;28;20853;-79
2024/04/03 02:02:01;;;;;;;2.60;1.47;;;10.30;99.90;;;;;;5053022;28;20463;-79
2024/04/03 02:04:27;;;;;;;2.40;2.20;;;10.30;99.90;;;;;;5055284;28;20565;-77
2024/04/03 02:06:54;;;;;;;1.40;1.30;;;10.30;99.90;;;;;;5057136;28;20473;-79
2024/04/03 02:09:20;;;;;;;1.83;1.47;;;10.20;99.90;;;;;;5055209;28;20582;-82
2024/04/03 02:11:47;;;;;;;1.43;1.33;;;10.30;99.90;;;;;;5041337;28;20538;-77
2024/04/03 02:14:13;;;;;;;2.50;1.50;;;10.20;99.90;;;;;;5056766;28;20519;-78
2024/04/03 02:16:44;;;;;;;1.87;1.37;;;10.20;99.90;;;;;;5053144;28;20449;-79
2024/04/03 02:19:10;;;;;;;2.93;1.50;;;10.20;99.90;;;;;;5052860;28;20498;-80
2024/04/03 02:21:38;;;;;;;1.67;1.40;;;10.20;99.90;;;;;;5056441;28;20474;-78
2024/04/03 02:24:04;;;;;;;2.47;1.40;;;10.20;99.90;;;;;;5054100;28;20578;-81
2024/04/03 02:26:32;;;;;;;1.57;1.30;;;10.20;99.90;;;;;;5055688;28;20530;-82
2024/04/03 02:28:58;;;;;;;1.40;1.30;;;10.30;99.90;;;;;;5054454;28;20553;-80
2024/04/03 02:31:25;;;;;;;1.20;1.20;;;10.20;99.90;;;;;;5054653;28;20481;-80
2024/04/03 02:33:52;;;;;;;1.50;1.40;;;10.20;99.90;;;;;;5056970;28;20545;-78
2024/04/03 02:36:19;;;;;;;1.57;1.20;;;10.30;99.90;;;;;;5049177;28;20539;-80
2024/04/03 02:38:46;;;;;;;1.60;1.37;;;10.40;99.90;;;;;;5052884;28;20900;-78
2024/04/03 02:41:13;;;;;;;1.63;1.47;;;10.40;99.90;;;;;;5052158;28;20515;-78
2024/04/03 02:43:39;;;;;;;2.30;1.30;;;10.50;99.90;;;;;;5055822;28;20539;-80
2024/04/03 02:46:06;;;;;;;1.23;1.20;;;10.50;99.90;;;;;;5055488;28;20555;-79
2024/04/03 02:48:32;;;;;;;1.30;1.20;;;10.50;99.90;;;;;;5054548;28;20568;-78
2024/04/03 02:51:05;;;;;;;1.40;1.30;;;10.50;99.90;;;;;;5055871;28;21191;-79
2024/04/03 02:53:31;;;;;;;1.40;1.20;;;10.40;99.90;;;;;;5054257;28;20619;-79
2024/04/03 02:56:02;;;;;;;2.60;1.20;;;10.40;99.90;;;;;;5055360;28;20560;-78
2024/04/03 02:58:28;;;;;;;1.20;1.20;;;10.30;99.60;;;;;;5050033;28;21002;-78
2024/04/03 03:01:00;;;;;;;1.27;1.27;;;10.30;99.90;;;;;;5053568;28;20468;-79
2024/04/03 03:03:29;;;;;;;1.60;1.50;;;10.20;99.20;;;;;;5056358;28;20543;-79
2024/04/03 03:05:57;;;;;;;1.30;1.20;;;10.30;99.60;;;;;;5055320;28;20505;-79
2024/04/03 03:08:25;;;;;;;2.43;1.20;;;10.30;99.10;;;;;;5055258;28;20553;-81
2024/04/03 03:10:52;;;;;;;1.20;1.20;;;10.30;99.90;;;;;;5051241;28;20463;-80
2024/04/03 03:13:18;;;;;;;1.40;1.30;;;10.30;99.90;;;;;;5048367;28;20451;-79
2024/04/03 03:15:52;;;;;;;1.40;1.20;;;10.30;99.90;;;;;;5054969;28;20530;-79
2024/04/03 03:18:21;;;;;;;2.90;1.27;;;10.30;99.90;;;;;;5060313;28;20514;-79
2024/04/03 03:20:49;;;;;;;1.27;1.23;;;10.30;99.90;;;;;;5051731;28;20492;-81
2024/04/03 03:23:16;;;;;;;1.50;1.30;;;10.30;99.90;;;;;;5054989;28;20552;-79
2024/04/03 03:25:46;;;;;;;2.67;1.40;;;10.30;99.90;;;;;;5055253;28;20476;-81
2024/04/03 03:28:13;;;;;;;1.40;1.23;;;10.40;99.90;;;;;;5032625;28;20476;-78
2024/04/03 03:30:40;;;;;;;1.37;1.27;;;10.30;99.90;;;;;;5051607;28;20476;-81
2024/04/03 03:33:07;;;;;;;1.57;1.47;;;10.40;99.90;;;;;;5052301;28;20786;-81
2024/04/03 03:35:34;;;;;;;4.23;1.40;;;10.40;99.90;;;;;;5052301;28;20463;-78
2024/04/03 03:38:01;;;;;;;2.13;1.60;;;10.40;99.90;;;;;;5050895;28;20470;-79
2024/04/03 03:40:28;;;;;;;2.30;1.40;;;10.30;99.90;;;;;;5052985;28;20500;-80
2024/04/03 03:42:57;;;;;;;3.47;1.30;;;10.40;99.90;;;;;;5061734;28;20450;-80
2024/04/03 03:45:24;;;;;;;3.20;1.30;;;10.30;99.90;;;;;;5050507;28;20832;-80
2024/04/03 03:47:50;;;;;;;2.20;1.30;;;10.20;99.90;;;;;;5051690;28;20457;-81
2024/04/03 03:53:01;;;;;;;1.83;1.20;;;10.10;99.90;;;;;;5027088;28;20494;-79
2024/04/03 03:55:29;;;;;;;2.93;1.43;;;10.10;99.90;;;;;;5051776;28;21196;-79
2024/04/03 03:57:58;;;;;;;1.50;1.40;;;10.10;99.90;;;;;;5049311;28;20983;-79
2024/04/03 04:00:26;;;;;;;2.00;1.57;;;10.10;99.90;;;;;;5048407;28;20601;-81
2024/04/03 04:02:54;;;;;;;2.33;1.70;;;10.10;99.90;;;;;;5052067;28;20482;-78
2024/04/03 04:05:21;;;;;;;2.83;1.70;;;10.20;99.90;;;;;;5049045;28;20955;-79
2024/04/03 04:07:47;;;;;;;2.00;1.80;;;10.20;99.90;;;;;;5049698;28;20535;-80
2024/04/03 04:10:15;;;;;;;1.57;1.40;;;10.10;99.90;;;;;;5053056;28;20482;-79
2024/04/03 04:12:42;;;;;;;2.70;2.50;;;10.10;99.90;;;;;;5052003;28;20976;-81
2024/04/03 04:15:11;;;;;;;2.13;1.80;;;10.10;99.90;;;;;;5054075;28;20960;-79
2024/04/03 04:17:37;;;;;;;1.93;1.83;;;10.10;99.90;;;;;;5053031;28;20436;-80
2024/04/03 04:20:07;;;;;;;1.60;1.50;;;10.00;99.90;;;;;;5050347;28;21023;-79
2024/04/03 04:22:33;;;;;;;1.90;1.33;;;10.10;99.90;;;;;;5048539;28;20542;-82
2024/04/03 04:25:02;;;;;;;2.83;1.40;;;10.10;99.90;;;;;;5053125;28;21045;-78
2024/04/03 04:27:28;;;;;;;1.50;1.50;;;10.10;99.90;;;;;;5052425;28;21083;-79
2024/04/03 04:29:56;;;;;;;1.70;1.60;;;10.10;99.90;;;;;;5047607;28;20499;-78
2024/04/03 04:32:23;;;;;;;1.50;1.40;;;10.10;99.90;;;;;;5051968;28;20454;-79
2024/04/03 04:34:52;;;;;;;2.73;1.50;;;10.10;99.90;;;;;;5049757;28;20456;-79
2024/04/03 04:37:19;;;;;;;2.20;1.30;;;10.10;99.90;;;;;;5059821;28;20447;-78
2024/04/03 04:39:46;;;;;;;1.60;1.27;;;10.10;99.90;;;;;;5049810;28;20993;-80
2024/04/03 04:42:12;;;;;;;1.40;1.30;;;10.20;99.90;;;;;;5046563;28;20461;-80
2024/04/03 04:44:39;;;;;;;1.73;1.20;;;10.20;99.90;;;;;;5051865;28;20497;-79
2024/04/03 04:47:05;;;;;;;1.50;1.40;;;10.20;99.90;;;;;;5058435;28;20569;-78
2024/04/03 04:49:34;;;;;;;1.90;1.30;;;10.20;99.90;;;;;;5050099;28;20466;-78
2024/04/03 04:52:00;;;;;;;1.63;1.53;;;10.20;99.90;;;;;;5038249;28;20499;-78
2024/04/03 04:54:27;;;;;;;2.07;1.87;;;10.30;99.90;;;;;;5050736;28;20535;-77
2024/04/03 04:56:53;;;;;;;2.00;1.40;;;10.30;99.90;;;;;;5051786;28;20478;-78
2024/04/03 04:59:20;;;;;;;1.50;1.40;;;10.20;99.90;;;;;;5050464;28;21004;-78
2024/04/03 05:01:46;;;;;;;1.50;1.40;;;10.20;99.90;;;;;;5049255;28;20447;-78
2024/04/03 05:04:14;;;;;;;1.47;1.37;;;10.20;99.90;;;;;;5052594;28;20484;-79
2024/04/03 05:06:41;;;;;;;1.30;1.30;;;10.30;99.90;;;;;;5045671;28;20577;-78
2024/04/03 05:09:08;;;;;;;1.40;1.20;;;10.30;99.90;;;;;;5057358;28;20479;-80
2024/04/03 05:11:34;;;;;;;1.47;1.37;;;10.40;99.90;;;;;;5064223;28;20454;-78
2024/04/03 05:14:01;;;;;;;2.20;1.40;;;10.40;99.90;;;;;;5046553;28;21061;-79
2024/04/03 05:16:29;;;;;;;1.63;1.30;;;10.40;99.90;;;;;;5046723;28;20540;-80
2024/04/03 05:18:56;;;;;;;1.70;1.60;;;10.40;99.90;;;;;;5046898;28;20913;-80
2024/04/03 05:21:22;;;;;;;1.50;1.40;;;10.40;99.90;;;;;;5051040;28;20573;-78
2024/04/03 05:23:51;;;;;;;1.50;1.40;;;10.50;99.90;;;;;;5053261;28;20495;-81
2024/04/03 05:26:17;;;;;;;1.80;1.70;;;10.40;99.90;;;;;;5051263;28;20646;-79
2024/04/03 05:28:44;;;;;;;2.33;1.67;;;10.40;99.90;;;;;;5051766;28;20514;-79
2024/04/03 05:31:14;;;;;;;1.50;1.40;;;10.30;99.90;;;;;;5056218;28;20219;-78
2024/04/03 05:33:42;;;;;;;2.20;2.00;;;10.40;99.90;;;;;;5045491;28;20475;-78
2024/04/03 05:36:09;;;;;;;1.50;1.40;;;10.40;99.90;;;;;;5061447;28;20499;-77
2024/04/03 05:38:37;;;;;;;1.80;1.70;;;10.40;99.90;;;;;;5060850;28;20569;-80
2024/04/03 05:41:05;;;;;;;1.70;1.40;;;10.40;99.90;;;;;;5060611;28;20480;-77
2024/04/03 05:43:33;;;;;;;1.60;1.50;;;10.30;99.90;;;;;;5059659;28;20980;-79
2024/04/03 05:45:59;;;;;;;2.43;1.30;;;10.30;99.90;;;;;;5063577;28;20594;-79
2024/04/03 05:48:27;;;;;;;1.60;1.50;;;10.30;99.90;;;;;;5057066;28;20580;-77
2024/04/03 05:51:00;;;;;;;1.77;1.50;;;10.20;99.90;;;;;;5054157;28;20510;-80
2024/04/03 05:53:28;;;;;;;1.50;1.40;;;10.30;99.90;;;;;;5060616;28;20454;-77
2024/04/03 05:55:54;;;;;;;1.60;1.47;;;10.30;99.90;;;;;;5054842;28;20555;-83
2024/04/03 05:58:23;;;;;;;1.50;1.40;;;10.30;99.90;;;;;;5054745;28;20550;-79
2024/04/03 06:00:50;;;;;;;1.60;1.30;;;10.40;99.90;;;;;;5057626;28;20495;-77
2024/04/03 06:03:17;;;;;;;2.63;1.43;;;10.40;99.90;;;;;;5056424;28;20546;-77
2024/04/03 06:05:44;;;;;;;2.00;1.57;;;10.40;99.90;;;;;;5056071;28;20501;-77
2024/04/03 06:08:11;;;;;;;2.40;1.43;;;10.40;99.90;;;;;;5058502;28;20538;-82
2024/04/03 06:10:38;;;;;;;3.80;2.03;;;10.30;99.90;;;;;;5057288;28;20550;-78
2024/04/03 06:13:06;;;;;;;1.73;1.57;;;10.30;99.90;;;;;;5065462;28;20495;-77
2024/04/03 06:15:34;;;;;;;1.40;1.30;;;10.30;99.90;;;;;;5060452;28;20458;-78
2024/04/03 06:18:01;;;;;;;4.83;1.70;;;10.30;99.90;;;;;;5054132;28;20225;-79
2024/04/03 06:20:27;;;;;;;1.73;1.43;;;10.40;99.90;;;;;;5059361;28;20455;-79
2024/04/03 06:22:55;;;;;;;1.60;1.50;;;10.30;99.90;;;;;;5057945;28;20454;-78
2024/04/03 06:25:21;;;;;;;1.50;1.40;;;10.30;99.90;;;;;;5059344;28;20525;-79
2024/04/03 06:27:49;;;;;;;1.50;1.50;;;10.40;99.90;;;;;;5056713;28;20452;-78
2024/04/03 06:30:15;;;;;;;1.60;1.30;;;10.40;99.90;;;;;;5060727;28;20474;-78
2024/04/03 06:32:44;;;;;;;1.10;1.10;;;10.40;99.90;;;;;;5059711;28;20446;-79
2024/04/03 06:35:10;;;;;;;1.80;1.53;;;10.50;99.90;;;;;;5073417;28;20451;-78
2024/04/03 06:37:37;;;;;;;4.20;1.93;;;10.60;99.90;;;;;;5056253;28;20999;-78
2024/04/03 06:40:04;;;;;;;1.20;1.20;;;10.60;99.90;;;;;;5057287;28;20499;-79
2024/04/03 06:42:31;;;;;;;1.40;1.30;;;10.70;99.90;;;;;;5054557;28;20442;-78
2024/04/03 06:44:59;;;;;;;1.83;1.43;;;10.70;99.90;;;;;;5047906;28;20462;-78
2024/04/03 06:47:27;;;;;;;1.60;1.50;;;10.80;99.90;;;;;;5054676;28;20534;-78
2024/04/03 06:49:56;;;;;;;1.20;1.20;;;10.80;99.90;;;;;;5057593;28;20300;-78
2024/04/03 06:52:25;;;;;;;1.53;1.20;;;10.80;99.90;;;;;;5058374;28;20460;-79
2024/04/03 06:54:52;;;;;;;1.30;1.20;;;10.80;99.90;;;;;;5056141;28;20517;-79
2024/04/03 06:57:19;;;;;;;1.50;1.40;;;10.80;99.90;;;;;;5058077;28;20452;-80
2024/04/03 06:59:45;;;;;;;2.20;1.60;;;10.80;99.90;;;;;;5053005;28;20486;-79
2024/04/03 07:02:12;;;;;;;1.70;1.47;;;10.80;99.90;;;;;;5054841;28;20485;-78
2024/04/03 07:04:38;;;;;;;1.20;1.20;;;10.80;99.90;;;;;;5052816;28;20471;-80
2024/04/03 07:07:08;;;;;;;1.60;1.30;;;10.80;99.90;;;;;;5055798;28;20969;-78
2024/04/03 07:09:35;;;;;;;2.13;1.53;;;10.80;99.90;;;;;;5057250;28;21014;-78
2024/04/03 07:12:03;;;;;;;2.17;1.73;;;10.80;99.90;;;;;;5057450;28;20802;-79
2024/04/03 07:14:29;;;;;;;1.60;1.50;;;10.90;99.90;;;;;;5057411;28;21052;-78
2024/04/03 07:16:56;;;;;;;1.50;1.40;;;10.80;99.90;;;;;;5053716;28;20455;-78
2024/04/03 07:19:22;;;;;;;2.33;1.80;;;10.80;99.90;;;;;;5056287;28;20491;-82
2024/04/03 07:21:49;;;;;;;3.43;1.50;;;10.90;99.90;;;;;;5045998;28;20480;-80
2024/04/03 07:24:17;;;;;;;1.57;1.33;;;10.90;99.90;;;;;;5058176;28;20488;-78
2024/04/03 07:26:45;;;;;;;1.40;1.30;;;10.90;99.90;;;;;;5063585;28;20579;-80
2024/04/03 07:29:12;;;;;;;1.30;1.30;;;10.90;99.90;;;;;;5056419;28;20482;-79
2024/04/03 07:31:39;;;;;;;1.50;1.40;;;11.00;99.90;;;;;;5055755;28;20552;-81
2024/04/03 07:34:06;;;;;;;2.03;1.20;;;10.90;99.90;;;;;;5053716;28;20530;-77
2024/04/03 07:36:34;;;;;;;1.50;1.40;;;11.00;99.90;;;;;;5057126;28;20484;-79
2024/04/03 07:39:00;;;;;;;3.27;1.77;;;11.00;99.90;;;;;;5057235;28;20511;-77
2024/04/03 07:41:32;;;;;;;1.50;1.50;;;11.00;99.90;;;;;;5058852;28;20448;-78
2024/04/03 07:44:05;;;;;;;1.40;1.30;;;11.10;99.90;;;;;;5066969;28;21015;-82
2024/04/03 07:46:35;;;;;;;4.27;1.50;;;11.10;99.90;;;;;;5038183;28;20971;-78
2024/04/03 07:49:02;;;;;;;1.77;1.67;;;11.10;99.90;;;;;;5056530;28;20521;-78
2024/04/03 07:51:29;;;;;;;1.63;1.53;;;11.20;99.90;;;;;;5052598;28;20465;-79
2024/04/03 07:53:55;;;;;;;2.10;1.30;;;11.20;99.90;;;;;;5056733;28;20898;-79
2024/04/03 07:56:22;;;;;;;1.53;1.40;;;11.20;99.90;;;;;;5054770;28;20488;-81
2024/04/03 07:58:50;;;;;;;2.13;1.33;;;11.20;99.90;;;;;;5053343;28;20565;-82
2024/04/03 08:01:17;;;;;;;1.80;1.70;;;11.30;99.90;;;;;;5064934;28;20477;-82
2024/04/03 08:03:44;;;;;;;2.63;1.30;;;11.30;99.90;;;;;;5057285;28;20506;-79
2024/04/03 08:06:11;;;;;;;1.13;1.10;;;11.40;99.90;;;;;;5056058;28;21327;-84
2024/04/03 08:08:37;;;;;;;1.90;1.70;;;11.40;99.90;;;;;;5056466;28;20480;-79
2024/04/03 08:11:04;;;;;;;1.30;1.30;;;11.40;99.90;;;;;;5055659;28;20556;-83
2024/04/03 08:13:31;;;;;;;2.20;1.30;;;11.50;99.90;;;;;;5056303;28;21085;-78
2024/04/03 08:16:04;;;;;;;3.33;2.30;;;11.60;99.90;;;;;;5057022;28;21049;-78
2024/04/03 08:18:32;;;;;;;1.20;1.20;;;11.70;99.90;;;;;;5053807;28;21038;-79
2024/04/03 08:21:01;;;;;;;1.10;1.10;;;11.60;99.90;;;;;;5062055;28;20446;-80
2024/04/03 08:23:27;;;;;;;1.20;1.20;;;11.70;99.90;;;;;;5054541;28;20468;-81
2024/04/03 08:25:54;;;;;;;1.40;1.40;;;11.80;99.90;;;;;;5052600;28;20474;-79
2024/04/03 08:28:20;;;;;;;1.17;1.17;;;12.00;99.90;;;;;;5055762;28;20492;-78
2024/04/03 08:30:47;;;;;;;1.10;1.10;;;12.00;99.90;;;;;;5053347;28;20779;-77
2024/04/03 08:33:15;;;;;;;1.63;1.20;;;12.10;99.90;;;;;;5057011;28;20458;-77
2024/04/03 08:35:42;;;;;;;2.70;1.33;;;12.20;99.90;;;;;;5054712;28;20465;-76
2024/04/03 08:38:08;;;;;;;1.30;1.20;;;12.20;99.90;;;;;;5057739;28;20565;-76
2024/04/03 08:40:35;;;;;;;1.10;1.10;;;12.20;99.90;;;;;;5053738;28;20568;-78
2024/04/03 08:43:02;;;;;;;1.20;1.20;;;12.20;99.90;;;;;;5056263;28;20970;-77
2024/04/03 08:45:32;;;;;;;1.30;1.20;;;12.30;99.90;;;;;;5054032;28;21061;-76
2024/04/03 08:47:59;;;;;;;1.30;1.20;;;12.30;99.90;;;;;;5055566;28;20539;-76
2024/04/03 08:50:29;;;;;;;2.93;1.03;;;12.30;99.90;;;;;;5055364;28;20460;-76
2024/04/03 08:52:55;;;;;;;1.00;1.00;;;12.30;99.90;;;;;;5054354;28;20501;-76
2024/04/03 08:55:23;;;;;;;2.07;1.53;;;12.30;99.90;;;;;;5036968;28;20548;-78
2024/04/03 08:57:49;;;;;;;1.30;1.20;;;12.20;99.90;;;;;;5051944;28;20570;-80
2024/04/03 09:00:17;;;;;;;1.40;1.30;;;12.30;99.90;;;;;;5054748;28;20471;-76
2024/04/03 09:02:43;;;;;;;1.20;1.10;;;12.30;99.90;;;;;;5055466;28;21047;-79
2024/04/03 09:05:11;;;;;;;2.67;1.20;;;12.30;99.90;;;;;;5053998;28;20562;-78
2024/04/03 09:07:38;;;;;;;1.20;1.20;;;12.30;99.90;;;;;;5053583;28;20990;-76
2024/04/03 09:10:06;;;;;;;1.20;1.10;;;12.40;99.90;;;;;;5053425;28;20475;-76
2024/04/03 09:12:34;;;;;;;1.30;1.20;;;12.40;99.90;;;;;;5052975;28;20449;-77
2024/04/03 09:15:06;;;;;;;1.17;1.17;;;12.40;99.90;;;;;;5054471;28;20208;-77
2024/04/03 09:17:33;;;;;;;1.10;1.10;;;12.50;99.90;;;;;;5054923;28;20966;-77
2024/04/03 09:20:00;;;;;;;1.20;1.20;;;12.60;99.90;;;;;;5054037;28;20512;-76
2024/04/03 09:22:26;;;;;;;1.40;1.40;;;12.60;99.90;;;;;;5035760;28;20475;-77
2024/04/03 09:24:55;;;;;;;1.30;1.30;;;12.70;99.90;;;;;;5053410;28;20496;-77
2024/04/03 09:27:21;;;;;;;1.40;1.20;;;12.80;99.90;;;;;;5051514;28;20471;-76
2024/04/03 09:29:53;;;;;;;1.40;1.30;;;13.00;99.90;;;;;;5051554;28;20565;-77
2024/04/03 09:32:19;;;;;;;1.30;1.30;;;13.10;99.90;;;;;;5051962;28;20701;-78
2024/04/03 09:34:48;;;;;;;1.20;1.20;;;13.20;99.90;;;;;;5055522;28;20470;-77
2024/04/03 09:37:14;;;;;;;1.20;1.20;;;13.30;99.90;;;;;;5050170;28;21125;-76
2024/04/03 09:39:41;;;;;;;1.30;1.20;;;13.20;99.90;;;;;;5056673;28;21143;-75
2024/04/03 09:42:16;;;;;;;1.23;1.20;;;13.20;99.90;;;;;;5053983;28;20458;-77
2024/04/03 09:44:44;;;;;;;1.20;1.20;;;13.20;99.90;;;;;;5053195;28;20485;-77
2024/04/03 09:47:15;;;;;;;1.77;1.30;;;13.20;99.90;;;;;;5054557;28;20536;-78
2024/04/03 09:49:48;;;;;;;1.23;1.20;;;13.20;99.90;;;;;;5053244;28;21294;-80
2024/04/03 09:52:14;;;;;;;2.60;1.40;;;13.20;99.90;;;;;;5058221;28;20491;-79
2024/04/03 09:54:43;;;;;;;1.40;1.30;;;13.10;99.90;;;;;;5054807;28;20496;-80
2024/04/03 09:57:11;;;;;;;1.10;1.10;;;13.10;99.90;;;;;;5057180;28;20485;-79
2024/04/03 09:59:38;;;;;;;1.30;1.10;;;13.10;99.90;;;;;;5060623;28;20470;-79
2024/04/03 10:02:08;;;;;;;1.17;1.17;;;13.00;99.90;;;;;;5055532;28;20542;-79
2024/04/03 10:04:37;;;;;;;1.20;1.20;;;13.10;99.90;;;;;;5055564;28;20450;-77
2024/04/03 10:07:03;;;;;;;1.17;1.07;;;13.00;99.90;;;;;;5053861;28;20471;-78
2024/04/03 10:09:32;;;;;;;1.00;1.00;;;13.00;99.90;;;;;;5071076;28;20472;-78
2024/04/03 10:11:59;;;;;;;2.20;1.20;;;13.00;99.90;;;;;;5057463;28;20456;-79
2024/04/03 10:14:29;;;;;;;1.23;1.13;;;12.90;99.90;;;;;;5053272;28;20553;-79
2024/04/03 10:16:56;;;;;;;1.40;1.40;;;12.80;99.90;;;;;;5055829;28;20810;-78
2024/04/03 10:19:25;;;;;;;1.20;1.20;;;12.80;99.90;;;;;;5056203;28;20526;-79
2024/04/03 10:21:53;;;;;;;1.20;1.20;;;12.70;99.90;;;;;;5057704;28;20548;-79
2024/04/03 10:24:20;;;;;;;1.40;1.30;;;12.60;99.90;;;;;;5061051;28;20552;-77
2024/04/03 10:26:48;;;;;;;1.20;1.10;;;12.60;99.90;;;;;;5057739;28;20567;-80
2024/04/03 10:29:15;;;;;;;1.20;1.20;;;12.60;99.90;;;;;;5057733;28;20514;-78
2024/04/03 10:31:46;;;;;;;1.17;1.10;;;12.50;99.90;;;;;;5061507;28;20477;-78
2024/04/03 10:34:17;;;;;;;1.30;1.20;;;12.50;99.90;;;;;;5059108;28;20453;-77
2024/04/03 10:36:44;;;;;;;1.40;1.40;;;12.50;99.90;;;;;;5061138;28;20481;-78
2024/04/03 10:39:11;;;;;;;1.30;1.30;;;12.60;99.90;;;;;;5054069;28;20478;-78
2024/04/03 10:41:37;;;;;;;1.40;1.40;;;12.50;99.90;;;;;;5051908;28;20489;-79
2024/04/03 10:44:05;;;;;;;1.20;1.20;;;12.50;99.90;;;;;;5060408;28;20517;-77
2024/04/03 10:46:31;;;;;;;1.30;1.30;;;12.60;99.90;;;;;;5056914;28;20556;-78
2024/04/03 10:49:00;;;;;;;1.20;1.20;;;12.60;99.90;;;;;;5055413;28;20861;-82
2024/04/03 10:51:26;;;;;;;1.30;1.30;;;12.60;99.90;;;;;;5059770;28;20859;-77
2024/04/03 10:53:55;;;;;;;1.43;1.33;;;12.60;99.90;;;;;;5055356;28;20568;-77
2024/04/03 10:56:24;;;;;;;1.70;1.30;;;12.70;99.90;;;;;;5055845;28;20540;-80
2024/04/03 10:58:53;;;;;;;1.30;1.30;;;12.80;99.90;;;;;;5055585;28;20525;-77
2024/04/03 11:01:19;;;;;;;1.40;1.40;;;12.70;99.90;;;;;;5055503;28;20548;-78
2024/04/03 11:03:51;;;;;;;1.50;1.40;;;12.70;99.90;;;;;;5053912;28;20527;-78
2024/04/03 11:06:19;;;;;;;1.77;1.30;;;12.70;99.90;;;;;;5056529;28;20573;-78
2024/04/03 11:08:47;;;;;;;1.43;1.43;;;12.70;99.90;;;;;;5053293;28;20466;-77
2024/04/03 11:11:14;;;;;;;1.80;1.70;;;12.70;99.90;;;;;;5053885;28;20554;-80
2024/04/03 11:13:47;;;;;;;1.40;1.30;;;12.60;99.90;;;;;;5056338;28;21085;-79
2024/04/03 11:16:14;;;;;;;1.40;1.40;;;12.60;99.90;;;;;;5060020;28;20470;-78
2024/04/03 11:18:43;;;;;;;1.57;1.47;;;12.60;99.90;;;;;;5056995;28;20560;-80
2024/04/03 11:21:09;;;;;;;1.40;1.40;;;12.70;99.90;;;;;;5057075;28;20551;-79
2024/04/03 11:23:40;;;;;;;1.40;1.30;;;12.70;99.90;;;;;;5059272;28;21040;-77
2024/04/03 11:26:06;;;;;;;1.30;1.30;;;12.70;99.90;;;;;;5053246;28;20502;-78
2024/04/03 11:28:34;;;;;;;1.47;1.30;;;12.80;99.90;;;;;;5054303;28;20590;-79
2024/04/03 11:31:00;;;;;;;1.67;1.57;;;12.70;99.90;;;;;;5060245;28;20461;-77
2024/04/03 11:33:31;;;;;;;2.67;2.20;;;12.60;99.90;;;;;;5053328;28;20442;-77
2024/04/03 11:35:57;;;;;;;1.47;1.33;;;12.50;99.90;;;;;;5053520;28;20462;-77
2024/04/03 11:38:25;;;;;;;1.50;1.40;;;12.50;99.90;;;;;;5047477;28;20511;-77
2024/04/03 11:40:53;;;;;;;1.40;1.40;;;12.40;99.90;;;;;;5054471;28;20462;-78
2024/04/03 11:43:20;;;;;;;1.40;1.40;;;12.40;99.90;;;;;;5056022;28;20885;-78
2024/04/03 11:45:46;;;;;;;1.40;1.40;;;12.40;99.90;;;;;;5053120;28;20499;-78
2024/04/03 11:48:13;;;;;;;1.60;1.50;;;12.40;99.90;;;;;;5052996;28;20529;-78
2024/04/03 11:50:39;;;;;;;1.50;1.50;;;12.50;99.90;;;;;;5054834;28;20546;-78
2024/04/03 11:53:06;;;;;;;1.40;1.40;;;12.50;99.90;;;;;;5056539;28;20473;-79
2024/04/03 11:55:33;;;;;;;1.30;1.30;;;12.60;99.90;;;;;;5039363;28;20504;-81
2024/04/03 11:58:01;;;;;;;1.30;1.30;;;12.50;99.90;;;;;;5054179;28;20978;-78
2024/04/03 12:00:27;;;;;;;1.30;1.30;;;12.40;99.90;;;;;;5057954;28;20483;-77
2024/04/03 12:02:54;;;;;;;1.30;1.30;;;12.40;99.90;;;;;;5059084;28;21052;-79
2024/04/03 12:05:21;;;;;;;1.30;1.30;;;12.30;99.90;;;;;;5057128;28;20490;-78
2024/04/03 12:07:48;;;;;;;1.50;1.50;;;12.40;99.90;;;;;;5053402;28;20515;-77
2024/04/03 12:10:15;;;;;;;1.33;1.33;;;12.30;99.90;;;;;;5056683;28;20491;-82
2024/04/03 12:12:42;;;;;;;2.27;1.40;;;12.30;99.90;;;;;;5056120;28;20456;-77
2024/04/03 12:15:09;;;;;;;1.47;1.47;;;12.30;99.90;;;;;;5059151;28;20497;-78
2024/04/03 12:17:37;;;;;;;1.50;1.50;;;12.20;99.90;;;;;;5061292;28;20477;-77
2024/04/03 12:20:06;;;;;;;1.40;1.40;;;12.20;99.90;;;;;;5052896;28;20509;-77
2024/04/03 12:22:34;;;;;;;1.60;1.60;;;12.30;99.90;;;;;;5055952;28;20541;-77
2024/04/03 12:25:01;;;;;;;1.70;1.60;;;12.40;99.90;;;;;;5058030;28;20446;-77
2024/04/03 12:27:29;;;;;;;1.57;1.57;;;12.50;99.90;;;;;;5056451;28;21005;-79
2024/04/03 12:29:55;;;;;;;1.50;1.50;;;12.40;99.90;;;;;;5058164;28;21205;-79
2024/04/03 12:32:25;;;;;;;1.83;1.73;;;12.50;99.90;;;;;;5060939;28;20887;-77
2024/04/03 12:34:53;;;;;;;1.60;1.60;;;12.50;99.90;;;;;;5056726;28;20486;-80
2024/04/03 12:37:20;;;;;;;1.70;1.60;;;12.40;99.90;;;;;;5054326;28;20542;-78
2024/04/03 12:39:46;;;;;;;1.40;1.40;;;12.40;99.90;;;;;;5055401;28;20559;-77
2024/04/03 12:42:13;;;;;;;1.53;1.50;;;12.40;99.90;;;;;;5054227;28;20476;-79
2024/04/03 12:44:40;;;;;;;1.60;1.50;;;12.40;99.90;;;;;;5054040;28;20997;-77
2024/04/03 12:47:07;;;;;;;1.63;1.60;;;12.40;99.90;;;;;;5055249;28;20497;-77
2024/04/03 12:49:35;;;;;;;1.50;1.50;;;12.50;99.90;;;;;;5057265;28;20510;-78
2024/04/03 12:52:03;;;;;;;1.80;1.70;;;12.40;99.90;;;;;;5051393;28;20474;-79